sensor_id;sensor_type;location;lat;lon;timestamp;P1;durP1;ratioP1;P2;durP2;ratioP2
20140;SDS011;10231;47.702;9.826;2022-07-04T00:00:23;1.70;;;1.60;;
20140;SDS011;10231;47.702;9.826;2022-07-04T00:02:50;2.00;;;1.90;;
20140;SDS011;10231;47.702;9.826;2022-07-04T00:05:16;2.00;;;1.87;;
20140;SDS011;10231;47.702;9.826;2022-07-04T00:07:44;1.73;;;1.63;;
20140;SDS011;10231;47.702;9.826;2022-07-04T00:10:13;1.83;;;1.33;;
20140;SDS011;10231;47.702;9.826;2022-07-04T00:12:41;1.40;;;1.40;;
20140;SDS011;10231;47.702;9.826;2022-07-04T00:15:08;1.90;;;1.80;;
20140;SDS011;10231;47.702;9.826;2022-07-04T00:17:35;1.50;;;1.40;;
20140;SDS011;10231;47.702;9.826;2022-07-04T00:20:01;1.60;;;1.50;;
20140;SDS011;10231;47.702;9.826;2022-07-04T00:22:28;2.70;;;1.60;;
20140;SDS011;10231;47.702;9.826;2022-07-04T00:24:54;1.83;;;1.73;;
20140;SDS011;10231;47.702;9.826;2022-07-04T00:27:19;1.77;;;1.63;;
20140;SDS011;10231;47.702;9.826;2022-07-04T00:29:45;2.63;;;1.47;;
20140;SDS011;10231;47.702;9.826;2022-07-04T00:32:11;1.87;;;1.80;;
20140;SDS011;10231;47.702;9.826;2022-07-04T00:34:36;1.70;;;1.60;;
20140;SDS011;10231;47.702;9.826;2022-07-04T00:37:02;2.50;;;2.00;;
20140;SDS011;10231;47.702;9.826;2022-07-04T00:39:28;1.50;;;1.37;;
20140;SDS011;10231;47.702;9.826;2022-07-04T00:41:54;1.10;;;1.10;;
20140;SDS011;10231;47.702;9.826;2022-07-04T00:44:20;1.53;;;1.53;;
20140;SDS011;10231;47.702;9.826;2022-07-04T00:46:46;1.50;;;1.40;;
20140;SDS011;10231;47.702;9.826;2022-07-04T00:49:13;2.57;;;1.40;;
20140;SDS011;10231;47.702;9.826;2022-07-04T00:51:42;1.67;;;1.37;;
20140;SDS011;10231;47.702;9.826;2022-07-04T00:54:09;1.37;;;1.27;;
20140;SDS011;10231;47.702;9.826;2022-07-04T00:56:37;1.83;;;1.73;;
20140;SDS011;10231;47.702;9.826;2022-07-04T00:59:06;2.47;;;1.60;;
20140;SDS011;10231;47.702;9.826;2022-07-04T01:01:32;3.07;;;1.10;;
20140;SDS011;10231;47.702;9.826;2022-07-04T01:03:58;1.00;;;1.00;;
20140;SDS011;10231;47.702;9.826;2022-07-04T01:06:25;1.13;;;1.00;;
20140;SDS011;10231;47.702;9.826;2022-07-04T01:08:51;1.00;;;1.00;;
20140;SDS011;10231;47.702;9.826;2022-07-04T01:11:17;1.70;;;1.20;;
20140;SDS011;10231;47.702;9.826;2022-07-04T01:13:42;1.40;;;0.90;;
20140;SDS011;10231;47.702;9.826;2022-07-04T01:16:09;1.00;;;1.00;;
20140;SDS011;10231;47.702;9.826;2022-07-04T01:18:36;1.33;;;1.10;;
20140;SDS011;10231;47.702;9.826;2022-07-04T01:21:02;1.23;;;0.80;;
20140;SDS011;10231;47.702;9.826;2022-07-04T01:23:28;1.13;;;0.90;;
20140;SDS011;10231;47.702;9.826;2022-07-04T01:25:55;1.33;;;0.90;;
20140;SDS011;10231;47.702;9.826;2022-07-04T01:28:22;0.70;;;0.70;;
20140;SDS011;10231;47.702;9.826;2022-07-04T01:30:48;1.17;;;1.07;;
20140;SDS011;10231;47.702;9.826;2022-07-04T01:33:14;1.60;;;0.80;;
20140;SDS011;10231;47.702;9.826;2022-07-04T01:35:42;0.90;;;0.77;;
20140;SDS011;10231;47.702;9.826;2022-07-04T01:38:08;0.97;;;0.97;;
20140;SDS011;10231;47.702;9.826;2022-07-04T01:40:34;0.80;;;0.80;;
20140;SDS011;10231;47.702;9.826;2022-07-04T01:43:00;2.73;;;0.90;;
20140;SDS011;10231;47.702;9.826;2022-07-04T01:45:26;0.90;;;0.90;;
20140;SDS011;10231;47.702;9.826;2022-07-04T01:47:51;0.93;;;0.80;;
20140;SDS011;10231;47.702;9.826;2022-07-04T01:50:17;0.80;;;0.80;;
20140;SDS011;10231;47.702;9.826;2022-07-04T01:52:42;1.13;;;0.87;;
20140;SDS011;10231;47.702;9.826;2022-07-04T01:55:09;1.07;;;0.80;;
20140;SDS011;10231;47.702;9.826;2022-07-04T01:57:36;1.20;;;0.97;;
20140;SDS011;10231;47.702;9.826;2022-07-04T02:00:05;1.57;;;1.10;;
20140;SDS011;10231;47.702;9.826;2022-07-04T02:02:51;1.07;;;1.00;;
20140;SDS011;10231;47.702;9.826;2022-07-04T02:05:17;0.77;;;0.77;;
20140;SDS011;10231;47.702;9.826;2022-07-04T02:07:42;0.93;;;0.93;;
20140;SDS011;10231;47.702;9.826;2022-07-04T02:10:09;1.03;;;1.00;;
20140;SDS011;10231;47.702;9.826;2022-07-04T02:12:34;2.30;;;1.53;;
20140;SDS011;10231;47.702;9.826;2022-07-04T02:15:19;1.10;;;1.00;;
20140;SDS011;10231;47.702;9.826;2022-07-04T02:17:44;1.40;;;1.30;;
20140;SDS011;10231;47.702;9.826;2022-07-04T02:20:10;1.30;;;1.30;;
20140;SDS011;10231;47.702;9.826;2022-07-04T02:22:36;1.73;;;1.60;;
20140;SDS011;10231;47.702;9.826;2022-07-04T02:25:01;1.80;;;1.70;;
20140;SDS011;10231;47.702;9.826;2022-07-04T02:27:27;1.60;;;1.50;;
20140;SDS011;10231;47.702;9.826;2022-07-04T02:29:53;1.67;;;1.57;;
20140;SDS011;10231;47.702;9.826;2022-07-04T02:32:18;1.70;;;1.60;;
20140;SDS011;10231;47.702;9.826;2022-07-04T02:34:44;2.37;;;1.87;;
20140;SDS011;10231;47.702;9.826;2022-07-04T02:37:09;1.77;;;1.67;;
20140;SDS011;10231;47.702;9.826;2022-07-04T02:39:35;2.00;;;1.63;;
20140;SDS011;10231;47.702;9.826;2022-07-04T02:42:01;1.90;;;1.67;;
20140;SDS011;10231;47.702;9.826;2022-07-04T02:44:27;2.00;;;1.67;;
20140;SDS011;10231;47.702;9.826;2022-07-04T02:46:53;1.47;;;1.40;;
20140;SDS011;10231;47.702;9.826;2022-07-04T02:49:19;1.77;;;1.60;;
20140;SDS011;10231;47.702;9.826;2022-07-04T02:51:45;2.07;;;1.87;;
20140;SDS011;10231;47.702;9.826;2022-07-04T02:54:10;1.87;;;1.77;;
20140;SDS011;10231;47.702;9.826;2022-07-04T02:56:36;1.43;;;1.40;;
20140;SDS011;10231;47.702;9.826;2022-07-04T02:59:02;2.10;;;1.70;;
20140;SDS011;10231;47.702;9.826;2022-07-04T03:01:27;1.70;;;1.63;;
20140;SDS011;10231;47.702;9.826;2022-07-04T03:03:53;1.50;;;1.40;;
20140;SDS011;10231;47.702;9.826;2022-07-04T03:06:18;1.57;;;1.30;;
20140;SDS011;10231;47.702;9.826;2022-07-04T03:08:44;1.33;;;1.20;;
20140;SDS011;10231;47.702;9.826;2022-07-04T03:11:10;1.50;;;1.40;;
20140;SDS011;10231;47.702;9.826;2022-07-04T03:13:36;1.60;;;1.50;;
20140;SDS011;10231;47.702;9.826;2022-07-04T03:16:04;1.97;;;1.77;;
20140;SDS011;10231;47.702;9.826;2022-07-04T03:18:30;2.40;;;1.47;;
20140;SDS011;10231;47.702;9.826;2022-07-04T03:20:55;1.50;;;1.40;;
20140;SDS011;10231;47.702;9.826;2022-07-04T03:23:21;1.03;;;1.00;;
20140;SDS011;10231;47.702;9.826;2022-07-04T03:25:46;3.77;;;1.53;;
20140;SDS011;10231;47.702;9.826;2022-07-04T03:28:12;2.17;;;1.60;;
20140;SDS011;10231;47.702;9.826;2022-07-04T03:30:38;1.60;;;1.50;;
20140;SDS011;10231;47.702;9.826;2022-07-04T03:33:04;1.20;;;1.20;;
20140;SDS011;10231;47.702;9.826;2022-07-04T03:35:29;1.77;;;1.67;;
20140;SDS011;10231;47.702;9.826;2022-07-04T03:37:55;1.57;;;1.47;;
20140;SDS011;10231;47.702;9.826;2022-07-04T03:40:21;1.47;;;1.10;;
20140;SDS011;10231;47.702;9.826;2022-07-04T03:42:48;1.43;;;0.80;;
20140;SDS011;10231;47.702;9.826;2022-07-04T03:45:14;1.17;;;1.07;;
20140;SDS011;10231;47.702;9.826;2022-07-04T03:47:39;1.80;;;0.80;;
20140;SDS011;10231;47.702;9.826;2022-07-04T03:50:05;1.03;;;1.03;;
20140;SDS011;10231;47.702;9.826;2022-07-04T03:52:32;1.23;;;0.90;;
20140;SDS011;10231;47.702;9.826;2022-07-04T03:54:57;1.73;;;1.03;;
20140;SDS011;10231;47.702;9.826;2022-07-04T03:57:23;1.10;;;1.07;;
20140;SDS011;10231;47.702;9.826;2022-07-04T03:59:49;1.00;;;1.00;;
20140;SDS011;10231;47.702;9.826;2022-07-04T04:02:14;1.13;;;1.13;;
20140;SDS011;10231;47.702;9.826;2022-07-04T04:04:40;1.03;;;1.00;;
20140;SDS011;10231;47.702;9.826;2022-07-04T04:07:24;1.63;;;1.30;;
20140;SDS011;10231;47.702;9.826;2022-07-04T04:09:50;1.03;;;0.97;;
20140;SDS011;10231;47.702;9.826;2022-07-04T04:12:16;1.20;;;1.20;;
20140;SDS011;10231;47.702;9.826;2022-07-04T04:14:41;0.90;;;0.90;;
20140;SDS011;10231;47.702;9.826;2022-07-04T04:17:08;2.40;;;1.20;;
20140;SDS011;10231;47.702;9.826;2022-07-04T04:19:34;0.90;;;0.90;;
20140;SDS011;10231;47.702;9.826;2022-07-04T04:22:00;2.23;;;1.43;;
20140;SDS011;10231;47.702;9.826;2022-07-04T04:24:25;1.63;;;1.40;;
20140;SDS011;10231;47.702;9.826;2022-07-04T04:26:51;1.20;;;1.20;;
20140;SDS011;10231;47.702;9.826;2022-07-04T04:29:16;2.87;;;1.30;;
20140;SDS011;10231;47.702;9.826;2022-07-04T04:31:42;1.60;;;1.50;;
20140;SDS011;10231;47.702;9.826;2022-07-04T04:34:08;2.13;;;1.90;;
20140;SDS011;10231;47.702;9.826;2022-07-04T04:36:33;2.57;;;2.33;;
20140;SDS011;10231;47.702;9.826;2022-07-04T04:38:59;2.80;;;1.73;;
20140;SDS011;10231;47.702;9.826;2022-07-04T04:41:25;3.37;;;2.27;;
20140;SDS011;10231;47.702;9.826;2022-07-04T04:43:50;3.07;;;1.60;;
20140;SDS011;10231;47.702;9.826;2022-07-04T04:46:16;2.37;;;1.60;;
20140;SDS011;10231;47.702;9.826;2022-07-04T04:48:42;3.47;;;2.50;;
20140;SDS011;10231;47.702;9.826;2022-07-04T04:51:07;2.73;;;1.97;;
20140;SDS011;10231;47.702;9.826;2022-07-04T04:53:33;3.70;;;2.03;;
20140;SDS011;10231;47.702;9.826;2022-07-04T04:55:58;3.63;;;2.00;;
20140;SDS011;10231;47.702;9.826;2022-07-04T04:58:24;2.07;;;1.93;;
20140;SDS011;10231;47.702;9.826;2022-07-04T05:00:50;2.60;;;2.33;;
20140;SDS011;10231;47.702;9.826;2022-07-04T05:03:16;3.03;;;2.20;;
20140;SDS011;10231;47.702;9.826;2022-07-04T05:05:42;2.80;;;2.57;;
20140;SDS011;10231;47.702;9.826;2022-07-04T05:08:08;3.30;;;2.50;;
20140;SDS011;10231;47.702;9.826;2022-07-04T05:10:34;2.83;;;2.20;;
20140;SDS011;10231;47.702;9.826;2022-07-04T05:13:00;3.13;;;2.20;;
20140;SDS011;10231;47.702;9.826;2022-07-04T05:15:26;2.80;;;2.57;;
20140;SDS011;10231;47.702;9.826;2022-07-04T05:17:51;2.83;;;2.60;;
20140;SDS011;10231;47.702;9.826;2022-07-04T05:20:17;4.27;;;2.67;;
20140;SDS011;10231;47.702;9.826;2022-07-04T05:22:43;2.30;;;2.10;;
20140;SDS011;10231;47.702;9.826;2022-07-04T05:25:09;2.73;;;2.50;;
20140;SDS011;10231;47.702;9.826;2022-07-04T05:27:34;2.30;;;2.13;;
20140;SDS011;10231;47.702;9.826;2022-07-04T05:30:00;2.67;;;2.47;;
20140;SDS011;10231;47.702;9.826;2022-07-04T05:32:26;3.07;;;2.33;;
20140;SDS011;10231;47.702;9.826;2022-07-04T05:34:51;3.47;;;2.67;;
20140;SDS011;10231;47.702;9.826;2022-07-04T05:37:17;3.10;;;2.40;;
20140;SDS011;10231;47.702;9.826;2022-07-04T05:39:43;3.17;;;2.83;;
20140;SDS011;10231;47.702;9.826;2022-07-04T05:42:09;3.00;;;2.80;;
20140;SDS011;10231;47.702;9.826;2022-07-04T05:44:35;3.03;;;2.83;;
20140;SDS011;10231;47.702;9.826;2022-07-04T05:47:00;2.57;;;2.37;;
20140;SDS011;10231;47.702;9.826;2022-07-04T05:49:26;3.17;;;2.53;;
20140;SDS011;10231;47.702;9.826;2022-07-04T05:51:52;3.73;;;2.60;;
20140;SDS011;10231;47.702;9.826;2022-07-04T05:54:17;2.80;;;2.60;;
20140;SDS011;10231;47.702;9.826;2022-07-04T05:56:43;5.30;;;2.90;;
20140;SDS011;10231;47.702;9.826;2022-07-04T05:59:09;2.33;;;2.13;;
20140;SDS011;10231;47.702;9.826;2022-07-04T06:01:38;3.80;;;2.70;;
20140;SDS011;10231;47.702;9.826;2022-07-04T06:04:04;3.20;;;2.90;;
20140;SDS011;10231;47.702;9.826;2022-07-04T06:06:30;2.77;;;2.57;;
20140;SDS011;10231;47.702;9.826;2022-07-04T06:08:57;3.57;;;3.17;;
20140;SDS011;10231;47.702;9.826;2022-07-04T06:11:23;3.17;;;2.90;;
20140;SDS011;10231;47.702;9.826;2022-07-04T06:13:49;3.77;;;2.90;;
20140;SDS011;10231;47.702;9.826;2022-07-04T06:16:15;3.20;;;2.90;;
20140;SDS011;10231;47.702;9.826;2022-07-04T06:18:41;3.27;;;2.97;;
20140;SDS011;10231;47.702;9.826;2022-07-04T06:21:07;4.53;;;3.53;;
20140;SDS011;10231;47.702;9.826;2022-07-04T06:23:33;4.70;;;2.97;;
20140;SDS011;10231;47.702;9.826;2022-07-04T06:25:59;5.33;;;3.30;;
20140;SDS011;10231;47.702;9.826;2022-07-04T06:28:24;4.63;;;3.23;;
20140;SDS011;10231;47.702;9.826;2022-07-04T06:30:50;3.40;;;3.10;;
20140;SDS011;10231;47.702;9.826;2022-07-04T06:33:16;4.43;;;3.20;;
20140;SDS011;10231;47.702;9.826;2022-07-04T06:35:42;3.47;;;3.17;;
20140;SDS011;10231;47.702;9.826;2022-07-04T06:38:14;3.57;;;3.27;;
20140;SDS011;10231;47.702;9.826;2022-07-04T06:40:43;4.17;;;3.50;;
20140;SDS011;10231;47.702;9.826;2022-07-04T06:43:09;4.27;;;3.70;;
20140;SDS011;10231;47.702;9.826;2022-07-04T06:45:35;3.97;;;3.53;;
20140;SDS011;10231;47.702;9.826;2022-07-04T06:48:01;3.77;;;3.00;;
20140;SDS011;10231;47.702;9.826;2022-07-04T06:50:28;4.33;;;3.03;;
20140;SDS011;10231;47.702;9.826;2022-07-04T06:52:57;2.83;;;2.63;;
20140;SDS011;10231;47.702;9.826;2022-07-04T06:55:37;3.10;;;2.80;;
20140;SDS011;10231;47.702;9.826;2022-07-04T06:58:03;2.80;;;2.60;;
20140;SDS011;10231;47.702;9.826;2022-07-04T07:00:29;3.87;;;2.83;;
20140;SDS011;10231;47.702;9.826;2022-07-04T07:02:56;2.60;;;2.40;;
20140;SDS011;10231;47.702;9.826;2022-07-04T07:05:23;3.00;;;2.80;;
20140;SDS011;10231;47.702;9.826;2022-07-04T07:07:50;5.10;;;2.97;;
20140;SDS011;10231;47.702;9.826;2022-07-04T07:10:15;3.83;;;2.80;;
20140;SDS011;10231;47.702;9.826;2022-07-04T07:12:41;3.30;;;3.00;;
20140;SDS011;10231;47.702;9.826;2022-07-04T07:15:06;2.57;;;2.37;;
20140;SDS011;10231;47.702;9.826;2022-07-04T07:17:33;2.57;;;2.37;;
20140;SDS011;10231;47.702;9.826;2022-07-04T07:19:59;3.40;;;3.10;;
20140;SDS011;10231;47.702;9.826;2022-07-04T07:22:25;3.07;;;2.73;;
20140;SDS011;10231;47.702;9.826;2022-07-04T07:24:51;2.57;;;2.40;;
20140;SDS011;10231;47.702;9.826;2022-07-04T07:27:17;2.90;;;2.23;;
20140;SDS011;10231;47.702;9.826;2022-07-04T07:29:42;2.13;;;1.93;;
20140;SDS011;10231;47.702;9.826;2022-07-04T07:32:08;1.57;;;1.57;;
20140;SDS011;10231;47.702;9.826;2022-07-04T07:34:34;1.93;;;1.73;;
20140;SDS011;10231;47.702;9.826;2022-07-04T07:37:00;1.70;;;1.60;;
20140;SDS011;10231;47.702;9.826;2022-07-04T07:39:26;1.60;;;1.50;;
20140;SDS011;10231;47.702;9.826;2022-07-04T07:41:52;1.67;;;1.57;;
20140;SDS011;10231;47.702;9.826;2022-07-04T07:44:18;2.00;;;1.90;;
20140;SDS011;10231;47.702;9.826;2022-07-04T07:46:43;1.50;;;1.40;;
20140;SDS011;10231;47.702;9.826;2022-07-04T07:49:09;1.30;;;1.30;;
20140;SDS011;10231;47.702;9.826;2022-07-04T07:51:35;3.43;;;1.90;;
20140;SDS011;10231;47.702;9.826;2022-07-04T07:54:03;2.07;;;1.97;;
20140;SDS011;10231;47.702;9.826;2022-07-04T07:56:29;3.40;;;1.80;;
20140;SDS011;10231;47.702;9.826;2022-07-04T07:58:55;1.77;;;1.67;;
20140;SDS011;10231;47.702;9.826;2022-07-04T08:01:20;2.27;;;2.07;;
20140;SDS011;10231;47.702;9.826;2022-07-04T08:03:46;2.30;;;1.90;;
20140;SDS011;10231;47.702;9.826;2022-07-04T08:06:31;1.80;;;1.70;;
20140;SDS011;10231;47.702;9.826;2022-07-04T08:08:57;2.40;;;1.33;;
20140;SDS011;10231;47.702;9.826;2022-07-04T08:11:23;1.80;;;1.70;;
20140;SDS011;10231;47.702;9.826;2022-07-04T08:13:49;2.00;;;1.73;;
20140;SDS011;10231;47.702;9.826;2022-07-04T08:16:14;2.77;;;2.00;;
20140;SDS011;10231;47.702;9.826;2022-07-04T08:18:40;1.87;;;1.77;;
20140;SDS011;10231;47.702;9.826;2022-07-04T08:21:05;1.73;;;1.47;;
20140;SDS011;10231;47.702;9.826;2022-07-04T08:23:32;1.67;;;1.57;;
20140;SDS011;10231;47.702;9.826;2022-07-04T08:25:58;1.80;;;1.70;;
20140;SDS011;10231;47.702;9.826;2022-07-04T08:28:25;2.07;;;1.97;;
20140;SDS011;10231;47.702;9.826;2022-07-04T08:30:51;1.70;;;1.60;;
20140;SDS011;10231;47.702;9.826;2022-07-04T08:33:16;2.07;;;1.87;;
20140;SDS011;10231;47.702;9.826;2022-07-04T08:35:43;2.00;;;1.63;;
20140;SDS011;10231;47.702;9.826;2022-07-04T08:38:08;2.20;;;2.00;;
20140;SDS011;10231;47.702;9.826;2022-07-04T08:40:34;1.50;;;1.50;;
20140;SDS011;10231;47.702;9.826;2022-07-04T08:43:01;1.80;;;1.70;;
20140;SDS011;10231;47.702;9.826;2022-07-04T08:45:28;1.53;;;1.43;;
20140;SDS011;10231;47.702;9.826;2022-07-04T08:48:00;1.70;;;1.60;;
20140;SDS011;10231;47.702;9.826;2022-07-04T08:50:34;2.03;;;1.80;;
20140;SDS011;10231;47.702;9.826;2022-07-04T08:53:03;1.50;;;1.40;;
20140;SDS011;10231;47.702;9.826;2022-07-04T08:55:34;3.60;;;1.90;;
20140;SDS011;10231;47.702;9.826;2022-07-04T08:58:19;1.57;;;1.47;;
20140;SDS011;10231;47.702;9.826;2022-07-04T09:00:55;2.87;;;1.83;;
20140;SDS011;10231;47.702;9.826;2022-07-04T09:03:22;1.73;;;1.63;;
20140;SDS011;10231;47.702;9.826;2022-07-04T09:05:49;2.10;;;1.83;;
20140;SDS011;10231;47.702;9.826;2022-07-04T09:08:15;1.60;;;1.50;;
20140;SDS011;10231;47.702;9.826;2022-07-04T09:10:41;1.67;;;1.50;;
20140;SDS011;10231;47.702;9.826;2022-07-04T09:13:07;1.80;;;1.70;;
20140;SDS011;10231;47.702;9.826;2022-07-04T09:15:34;2.20;;;1.50;;
20140;SDS011;10231;47.702;9.826;2022-07-04T09:18:00;2.07;;;1.93;;
20140;SDS011;10231;47.702;9.826;2022-07-04T09:20:27;2.40;;;2.20;;
20140;SDS011;10231;47.702;9.826;2022-07-04T09:22:54;3.30;;;3.00;;
20140;SDS011;10231;47.702;9.826;2022-07-04T09:25:21;3.27;;;2.67;;
20140;SDS011;10231;47.702;9.826;2022-07-04T09:27:48;2.80;;;2.47;;
20140;SDS011;10231;47.702;9.826;2022-07-04T09:30:20;3.67;;;2.93;;
20140;SDS011;10231;47.702;9.826;2022-07-04T09:32:47;3.10;;;2.80;;
20140;SDS011;10231;47.702;9.826;2022-07-04T09:37:51;3.10;;;2.80;;
20140;SDS011;10231;47.702;9.826;2022-07-04T09:42:51;1.57;;;1.43;;
20140;SDS011;10231;47.702;9.826;2022-07-04T09:45:17;2.23;;;1.43;;
20140;SDS011;10231;47.702;9.826;2022-07-04T09:47:46;1.80;;;1.70;;
20140;SDS011;10231;47.702;9.826;2022-07-04T09:50:13;1.90;;;1.80;;
20140;SDS011;10231;47.702;9.826;2022-07-04T09:55:19;1.63;;;1.40;;
20140;SDS011;10231;47.702;9.826;2022-07-04T09:57:50;1.77;;;1.07;;
20140;SDS011;10231;47.702;9.826;2022-07-04T10:02:49;1.47;;;1.40;;
20140;SDS011;10231;47.702;9.826;2022-07-04T10:06:01;1.47;;;1.40;;
20140;SDS011;10231;47.702;9.826;2022-07-04T10:08:07;1.47;;;1.27;;
20140;SDS011;10231;47.702;9.826;2022-07-04T10:10:34;2.00;;;1.50;;
20140;SDS011;10231;47.702;9.826;2022-07-04T10:13:09;1.50;;;1.40;;
20140;SDS011;10231;47.702;9.826;2022-07-04T10:15:37;1.20;;;1.20;;
20140;SDS011;10231;47.702;9.826;2022-07-04T10:18:05;1.50;;;1.50;;
20140;SDS011;10231;47.702;9.826;2022-07-04T10:20:31;2.93;;;1.50;;
20140;SDS011;10231;47.702;9.826;2022-07-04T10:22:57;1.97;;;1.23;;
20140;SDS011;10231;47.702;9.826;2022-07-04T10:25:24;1.60;;;1.50;;
20140;SDS011;10231;47.702;9.826;2022-07-04T10:27:50;2.73;;;1.90;;
20140;SDS011;10231;47.702;9.826;2022-07-04T10:30:23;1.40;;;1.40;;
20140;SDS011;10231;47.702;9.826;2022-07-04T10:32:51;1.67;;;1.20;;
20140;SDS011;10231;47.702;9.826;2022-07-04T10:35:18;1.80;;;1.30;;
20140;SDS011;10231;47.702;9.826;2022-07-04T10:38:16;1.60;;;1.50;;
20140;SDS011;10231;47.702;9.826;2022-07-04T10:45:55;1.20;;;1.03;;
20140;SDS011;10231;47.702;9.826;2022-07-04T10:48:27;1.30;;;1.20;;
20140;SDS011;10231;47.702;9.826;2022-07-04T10:50:59;1.63;;;1.20;;
20140;SDS011;10231;47.702;9.826;2022-07-04T10:53:29;1.67;;;1.40;;
20140;SDS011;10231;47.702;9.826;2022-07-04T10:58:40;1.73;;;1.63;;
20140;SDS011;10231;47.702;9.826;2022-07-04T11:01:11;1.67;;;1.57;;
20140;SDS011;10231;47.702;9.826;2022-07-04T11:03:44;1.87;;;1.60;;
20140;SDS011;10231;47.702;9.826;2022-07-04T11:14:43;1.37;;;1.27;;
20140;SDS011;10231;47.702;9.826;2022-07-04T11:17:13;1.20;;;1.20;;
20140;SDS011;10231;47.702;9.826;2022-07-04T11:19:44;1.67;;;1.23;;
20140;SDS011;10231;47.702;9.826;2022-07-04T11:22:09;2.73;;;1.70;;
20140;SDS011;10231;47.702;9.826;2022-07-04T11:24:36;1.83;;;1.50;;
20140;SDS011;10231;47.702;9.826;2022-07-04T11:27:03;1.70;;;1.60;;
20140;SDS011;10231;47.702;9.826;2022-07-04T11:29:29;1.63;;;1.53;;
20140;SDS011;10231;47.702;9.826;2022-07-04T11:31:55;1.80;;;1.70;;
20140;SDS011;10231;47.702;9.826;2022-07-04T11:34:22;2.10;;;1.90;;
20140;SDS011;10231;47.702;9.826;2022-07-04T11:36:49;2.07;;;1.57;;
20140;SDS011;10231;47.702;9.826;2022-07-04T11:39:19;2.17;;;1.90;;
20140;SDS011;10231;47.702;9.826;2022-07-04T11:41:47;1.50;;;1.30;;
20140;SDS011;10231;47.702;9.826;2022-07-04T11:44:39;1.77;;;1.50;;
20140;SDS011;10231;47.702;9.826;2022-07-04T11:47:25;1.40;;;1.40;;
20140;SDS011;10231;47.702;9.826;2022-07-04T11:50:10;1.40;;;1.40;;
20140;SDS011;10231;47.702;9.826;2022-07-04T11:55:09;1.53;;;1.43;;
20140;SDS011;10231;47.702;9.826;2022-07-04T11:57:38;2.03;;;1.60;;
20140;SDS011;10231;47.702;9.826;2022-07-04T12:00:11;1.77;;;1.67;;
20140;SDS011;10231;47.702;9.826;2022-07-04T12:02:46;2.63;;;1.60;;
20140;SDS011;10231;47.702;9.826;2022-07-04T12:05:13;2.43;;;1.60;;
20140;SDS011;10231;47.702;9.826;2022-07-04T12:07:40;1.67;;;1.37;;
20140;SDS011;10231;47.702;9.826;2022-07-04T12:10:08;3.13;;;1.67;;
20140;SDS011;10231;47.702;9.826;2022-07-04T12:13:03;1.43;;;1.43;;
20140;SDS011;10231;47.702;9.826;2022-07-04T12:15:38;2.33;;;1.60;;
20140;SDS011;10231;47.702;9.826;2022-07-04T12:18:10;3.03;;;1.60;;
20140;SDS011;10231;47.702;9.826;2022-07-04T12:20:41;2.13;;;1.60;;
20140;SDS011;10231;47.702;9.826;2022-07-04T12:23:06;1.90;;;1.60;;
20140;SDS011;10231;47.702;9.826;2022-07-04T12:25:35;1.63;;;1.40;;
20140;SDS011;10231;47.702;9.826;2022-07-04T12:30:33;1.30;;;1.20;;
20140;SDS011;10231;47.702;9.826;2022-07-04T12:33:03;1.63;;;1.50;;
20140;SDS011;10231;47.702;9.826;2022-07-04T12:38:21;1.47;;;1.37;;
20140;SDS011;10231;47.702;9.826;2022-07-04T12:46:09;1.93;;;1.40;;
20140;SDS011;10231;47.702;9.826;2022-07-04T12:48:36;1.10;;;1.10;;
20140;SDS011;10231;47.702;9.826;2022-07-04T12:51:10;2.50;;;1.10;;
20140;SDS011;10231;47.702;9.826;2022-07-04T12:53:40;1.13;;;1.00;;
20140;SDS011;10231;47.702;9.826;2022-07-04T12:56:07;1.40;;;1.30;;
20140;SDS011;10231;47.702;9.826;2022-07-04T12:58:34;2.20;;;2.00;;
20140;SDS011;10231;47.702;9.826;2022-07-04T13:01:01;1.20;;;1.20;;
20140;SDS011;10231;47.702;9.826;2022-07-04T13:03:27;1.53;;;1.20;;
20140;SDS011;10231;47.702;9.826;2022-07-04T13:05:53;1.30;;;1.30;;
20140;SDS011;10231;47.702;9.826;2022-07-04T13:08:22;1.20;;;1.10;;
20140;SDS011;10231;47.702;9.826;2022-07-04T13:10:48;1.50;;;1.03;;
20140;SDS011;10231;47.702;9.826;2022-07-04T13:13:33;1.27;;;1.27;;
20140;SDS011;10231;47.702;9.826;2022-07-04T13:15:59;1.43;;;1.23;;
20140;SDS011;10231;47.702;9.826;2022-07-04T13:18:25;1.70;;;1.60;;
20140;SDS011;10231;47.702;9.826;2022-07-04T13:20:51;1.77;;;1.67;;
20140;SDS011;10231;47.702;9.826;2022-07-04T13:23:17;1.10;;;1.10;;
20140;SDS011;10231;47.702;9.826;2022-07-04T13:25:42;1.60;;;1.00;;
20140;SDS011;10231;47.702;9.826;2022-07-04T13:28:08;1.47;;;1.37;;
20140;SDS011;10231;47.702;9.826;2022-07-04T13:30:33;1.50;;;1.30;;
20140;SDS011;10231;47.702;9.826;2022-07-04T13:32:59;1.63;;;1.40;;
20140;SDS011;10231;47.702;9.826;2022-07-04T13:35:25;1.13;;;1.13;;
20140;SDS011;10231;47.702;9.826;2022-07-04T13:37:50;1.60;;;1.20;;
20140;SDS011;10231;47.702;9.826;2022-07-04T13:40:16;1.17;;;1.17;;
20140;SDS011;10231;47.702;9.826;2022-07-04T13:42:41;1.73;;;1.20;;
20140;SDS011;10231;47.702;9.826;2022-07-04T13:45:22;1.10;;;1.00;;
20140;SDS011;10231;47.702;9.826;2022-07-04T13:47:48;0.97;;;0.97;;
20140;SDS011;10231;47.702;9.826;2022-07-04T13:50:14;2.13;;;1.00;;
20140;SDS011;10231;47.702;9.826;2022-07-04T13:52:40;1.00;;;1.00;;
20140;SDS011;10231;47.702;9.826;2022-07-04T13:55:05;1.90;;;1.03;;
20140;SDS011;10231;47.702;9.826;2022-07-04T13:57:31;2.03;;;0.90;;
20140;SDS011;10231;47.702;9.826;2022-07-04T13:59:57;1.70;;;0.87;;
20140;SDS011;10231;47.702;9.826;2022-07-04T14:02:23;1.50;;;1.40;;
20140;SDS011;10231;47.702;9.826;2022-07-04T14:04:48;0.80;;;0.80;;
20140;SDS011;10231;47.702;9.826;2022-07-04T14:07:14;0.63;;;0.63;;
20140;SDS011;10231;47.702;9.826;2022-07-04T14:09:40;1.70;;;0.80;;
20140;SDS011;10231;47.702;9.826;2022-07-04T14:12:05;3.50;;;0.80;;
20140;SDS011;10231;47.702;9.826;2022-07-04T14:14:31;1.57;;;0.60;;
20140;SDS011;10231;47.702;9.826;2022-07-04T14:16:57;0.70;;;0.70;;
20140;SDS011;10231;47.702;9.826;2022-07-04T14:19:22;1.00;;;0.70;;
20140;SDS011;10231;47.702;9.826;2022-07-04T14:21:48;0.63;;;0.50;;
20140;SDS011;10231;47.702;9.826;2022-07-04T14:24:14;0.77;;;0.70;;
20140;SDS011;10231;47.702;9.826;2022-07-04T14:26:40;0.67;;;0.63;;
20140;SDS011;10231;47.702;9.826;2022-07-04T14:29:07;1.33;;;0.73;;
20140;SDS011;10231;47.702;9.826;2022-07-04T14:31:32;0.70;;;0.70;;
20140;SDS011;10231;47.702;9.826;2022-07-04T14:33:58;1.10;;;0.80;;
20140;SDS011;10231;47.702;9.826;2022-07-04T14:36:24;1.23;;;0.83;;
20140;SDS011;10231;47.702;9.826;2022-07-04T14:38:49;0.97;;;0.70;;
20140;SDS011;10231;47.702;9.826;2022-07-04T14:41:15;0.70;;;0.70;;
20140;SDS011;10231;47.702;9.826;2022-07-04T14:43:41;2.27;;;0.83;;
20140;SDS011;10231;47.702;9.826;2022-07-04T14:46:08;1.90;;;0.80;;
20140;SDS011;10231;47.702;9.826;2022-07-04T14:48:35;1.07;;;1.00;;
20140;SDS011;10231;47.702;9.826;2022-07-04T14:51:02;1.47;;;0.77;;
20140;SDS011;10231;47.702;9.826;2022-07-04T14:53:28;1.17;;;0.77;;
20140;SDS011;10231;47.702;9.826;2022-07-04T14:55:54;1.13;;;0.80;;
20140;SDS011;10231;47.702;9.826;2022-07-04T14:58:19;0.70;;;0.70;;
20140;SDS011;10231;47.702;9.826;2022-07-04T15:00:45;0.83;;;0.80;;
20140;SDS011;10231;47.702;9.826;2022-07-04T15:03:11;1.30;;;0.90;;
20140;SDS011;10231;47.702;9.826;2022-07-04T15:05:37;0.93;;;0.93;;
20140;SDS011;10231;47.702;9.826;2022-07-04T15:08:02;1.47;;;0.90;;
20140;SDS011;10231;47.702;9.826;2022-07-04T15:10:28;1.20;;;1.10;;
20140;SDS011;10231;47.702;9.826;2022-07-04T15:12:53;3.90;;;1.60;;
20140;SDS011;10231;47.702;9.826;2022-07-04T15:15:19;1.30;;;1.20;;
20140;SDS011;10231;47.702;9.826;2022-07-04T15:17:45;2.03;;;1.00;;
20140;SDS011;10231;47.702;9.826;2022-07-04T15:20:11;1.93;;;1.20;;
20140;SDS011;10231;47.702;9.826;2022-07-04T15:22:56;1.97;;;1.50;;
20140;SDS011;10231;47.702;9.826;2022-07-04T15:25:40;1.10;;;1.00;;
20140;SDS011;10231;47.702;9.826;2022-07-04T15:28:06;1.30;;;1.20;;